Time;durP1;ratioP1;P1;durP2;ratioP2;P2;SDS_P1;SDS_P2;PMS_P1;PMS_P2;Temp;Humidity;BMP_temperature;BMP_pressure;BME280_temperature;BME280_humidity;BME280_pressure;Samples;Min_cycle;Max_cycle;Signal;HPM_P1;HPM_P2
2022/01/06 00:01:24;;;;;;;0.65;0.65;;;21.00;57.90;;;;;;5038297;28;20449;-69
2022/01/06 00:03:52;;;;;;;0.60;0.60;;;21.00;57.90;;;;;;5046288;28;20029;-69
2022/01/06 00:06:18;;;;;;;0.50;0.50;;;21.00;57.90;;;;;;5046628;28;20482;-69
2022/01/06 00:08:44;;;;;;;0.75;0.75;;;21.00;57.90;;;;;;5039371;28;20091;-69
2022/01/06 00:11:11;;;;;;;0.60;0.60;;;21.00;58.00;;;;;;5051029;28;20783;-69
2022/01/06 00:24:11;;;;;;;0.68;0.68;;;21.00;58.10;;;;;;5040159;28;20039;-69
2022/01/06 00:26:37;;;;;;;0.57;0.57;;;21.00;58.20;;;;;;5053124;28;20048;-69
2022/01/06 00:29:03;;;;;;;0.60;0.60;;;21.00;58.10;;;;;;5036873;28;20033;-69
2022/01/06 00:31:28;;;;;;;5.68;0.70;;;21.00;58.10;;;;;;5053505;28;20070;-69
2022/01/06 00:33:54;;;;;;;0.70;0.70;;;21.00;58.10;;;;;;5054129;28;20021;-69
2022/01/06 00:36:19;;;;;;;0.95;0.60;;;21.00;58.20;;;;;;5036750;28;20375;-69
2022/01/06 00:38:45;;;;;;;0.80;0.80;;;21.00;58.20;;;;;;5053086;28;20029;-69
2022/01/06 00:41:11;;;;;;;1.65;0.63;;;21.00;59.20;;;;;;5053550;28;20104;-69
2022/01/06 00:43:36;;;;;;;1.88;0.75;;;21.00;58.20;;;;;;5053255;28;20414;-69
2022/01/06 00:46:02;;;;;;;0.73;0.73;;;21.00;58.20;;;;;;5052966;28;20480;-69
2022/01/06 00:48:27;;;;;;;0.80;0.65;;;21.00;58.20;;;;;;5053795;28;20460;-69
2022/01/06 00:50:53;;;;;;;1.05;0.77;;;21.00;58.30;;;;;;5054136;28;20060;-69
2022/01/06 00:53:19;;;;;;;0.73;0.73;;;21.00;58.30;;;;;;5036264;28;20057;-69
2022/01/06 00:55:44;;;;;;;0.80;0.80;;;21.00;58.20;;;;;;5045462;28;20028;-69
2022/01/06 00:58:10;;;;;;;0.50;0.50;;;21.00;58.30;;;;;;5040444;28;20021;-69
2022/01/06 01:00:40;;;;;;;0.70;0.68;;;21.00;58.30;;;;;;5039410;28;20070;-69
2022/01/06 01:03:13;;;;;;;0.70;0.60;;;21.00;58.30;;;;;;5036408;28;20116;-69
2022/01/06 01:05:39;;;;;;;0.65;0.65;;;21.00;58.40;;;;;;5052862;28;20017;-69
2022/01/06 01:08:05;;;;;;;0.60;0.60;;;21.00;58.30;;;;;;5035668;28;20136;-69
2022/01/06 01:10:31;;;;;;;0.60;0.60;;;21.00;58.40;;;;;;5052621;28;20455;-69
2022/01/06 01:12:57;;;;;;;0.70;0.70;;;21.00;58.30;;;;;;5036027;28;20024;-69
2022/01/06 01:15:23;;;;;;;3.60;0.80;;;21.00;58.40;;;;;;5050598;28;20027;-69
2022/01/06 01:17:50;;;;;;;0.57;0.57;;;21.00;58.40;;;;;;5032290;28;20045;-69
2022/01/06 01:20:16;;;;;;;0.60;0.60;;;21.00;58.40;;;;;;5032301;28;20026;-69
2022/01/06 01:22:42;;;;;;;0.85;0.70;;;21.00;58.40;;;;;;5032453;28;20036;-69
2022/01/06 01:25:08;;;;;;;0.55;0.55;;;21.00;59.40;;;;;;5032379;28;20030;-69
2022/01/06 01:27:35;;;;;;;1.02;0.57;;;21.00;58.40;;;;;;5033532;28;20045;-69
2022/01/06 01:30:09;;;;;;;0.60;0.60;;;21.00;58.40;;;;;;5033134;28;20026;-69
2022/01/06 01:32:37;;;;;;;1.15;0.80;;;21.00;58.40;;;;;;5032340;28;20038;-69
2022/01/06 01:35:03;;;;;;;0.95;0.80;;;21.00;58.40;;;;;;5015941;28;20022;-69
2022/01/06 01:37:29;;;;;;;0.80;0.80;;;20.90;58.40;;;;;;5032133;28;20029;-69
2022/01/06 01:39:55;;;;;;;0.70;0.60;;;21.00;58.50;;;;;;5032043;28;20025;-69
2022/01/06 01:42:21;;;;;;;0.47;0.47;;;21.00;58.50;;;;;;5032204;28;20144;-69
2022/01/06 01:44:49;;;;;;;1.98;0.70;;;21.00;58.50;;;;;;5031665;28;20034;-69
2022/01/06 01:47:16;;;;;;;1.90;0.60;;;21.00;58.50;;;;;;5031969;28;20026;-69
2022/01/06 01:49:59;;;;;;;0.70;0.70;;;21.00;58.60;;;;;;5033211;28;20033;-69
2022/01/06 01:52:25;;;;;;;0.70;0.70;;;21.00;58.60;;;;;;5032986;28;20029;-69
2022/01/06 01:54:50;;;;;;;0.60;0.60;;;20.90;58.50;;;;;;5033194;28;20020;-69
2022/01/06 01:57:16;;;;;;;0.60;0.60;;;21.00;58.60;;;;;;5031629;28;20046;-69
2022/01/06 01:59:42;;;;;;;1.40;0.63;;;21.00;58.60;;;;;;5015222;28;20058;-69
2022/01/06 02:02:08;;;;;;;0.75;0.50;;;21.00;58.60;;;;;;5032917;28;20057;-69
2022/01/06 02:04:34;;;;;;;1.50;0.60;;;21.00;58.60;;;;;;5015539;28;20045;-69
2022/01/06 02:06:59;;;;;;;0.70;0.70;;;21.00;58.70;;;;;;5031934;28;20490;-69
2022/01/06 02:09:25;;;;;;;0.50;0.50;;;21.00;58.60;;;;;;5015042;28;20092;-69
2022/01/06 02:11:51;;;;;;;0.70;0.70;;;21.00;58.60;;;;;;5032875;28;20028;-69
2022/01/06 02:14:16;;;;;;;0.50;0.50;;;21.00;58.60;;;;;;5030843;28;20458;-69
2022/01/06 02:16:42;;;;;;;0.85;0.70;;;21.00;58.70;;;;;;5044098;28;20021;-69
2022/01/06 02:19:07;;;;;;;0.88;0.85;;;21.00;58.60;;;;;;5052439;28;20097;-69
2022/01/06 02:21:39;;;;;;;2.17;0.60;;;21.00;58.70;;;;;;5051407;28;20029;-69
2022/01/06 02:24:05;;;;;;;2.53;0.70;;;21.00;58.60;;;;;;5035191;28;20021;-69
2022/01/06 02:26:31;;;;;;;0.65;0.60;;;21.00;58.60;;;;;;5052623;28;20044;-69
2022/01/06 02:28:56;;;;;;;1.42;0.77;;;21.00;58.70;;;;;;5051269;28;20033;-69
2022/01/06 02:31:22;;;;;;;2.05;0.60;;;21.00;58.70;;;;;;5052409;28;20109;-69
2022/01/06 02:33:49;;;;;;;1.48;0.80;;;21.00;58.70;;;;;;5052645;28;20049;-69
2022/01/06 02:36:14;;;;;;;1.00;1.00;;;21.00;58.70;;;;;;5034940;28;20459;-69
2022/01/06 02:38:40;;;;;;;0.70;0.63;;;21.00;58.70;;;;;;5034803;28;20036;-69
2022/01/06 02:41:06;;;;;;;0.50;0.50;;;21.00;58.70;;;;;;5052726;28;20052;-69
2022/01/06 02:43:31;;;;;;;0.90;0.60;;;21.00;58.70;;;;;;5051023;28;20029;-69
2022/01/06 02:45:57;;;;;;;0.70;0.70;;;21.00;58.70;;;;;;5034835;28;20029;-69
2022/01/06 02:48:23;;;;;;;0.63;0.63;;;21.00;58.70;;;;;;5052223;28;20563;-69
2022/01/06 02:50:49;;;;;;;1.25;0.80;;;21.00;58.70;;;;;;5051430;28;20361;-69
2022/01/06 02:53:16;;;;;;;0.68;0.65;;;21.00;58.70;;;;;;5034536;28;20021;-69
2022/01/06 02:55:47;;;;;;;0.82;0.80;;;21.00;58.70;;;;;;5044147;28;20053;-69
2022/01/06 02:58:13;;;;;;;0.70;0.70;;;21.00;58.70;;;;;;5032808;28;20022;-69
2022/01/06 03:00:39;;;;;;;1.08;0.70;;;21.00;58.70;;;;;;5044848;28;20021;-69
2022/01/06 03:03:04;;;;;;;0.63;0.50;;;21.00;58.70;;;;;;5019053;28;20407;-69
2022/01/06 03:05:30;;;;;;;1.75;0.77;;;21.00;58.70;;;;;;5051024;28;20021;-69
2022/01/06 03:07:55;;;;;;;0.88;0.63;;;21.00;58.70;;;;;;5041541;28;20044;-69
2022/01/06 03:10:22;;;;;;;1.20;0.68;;;21.00;58.70;;;;;;5045625;28;20412;-69
2022/01/06 03:12:48;;;;;;;2.92;0.80;;;21.00;58.80;;;;;;5034327;28;20021;-69
2022/01/06 03:15:22;;;;;;;1.13;0.60;;;21.00;58.80;;;;;;5029896;28;20468;-69
2022/01/06 03:17:53;;;;;;;0.70;0.60;;;21.00;58.70;;;;;;5055190;28;20439;-69
2022/01/06 03:20:19;;;;;;;1.85;0.60;;;21.00;58.80;;;;;;5031376;28;20053;-69
2022/01/06 03:22:45;;;;;;;1.08;0.82;;;21.00;58.80;;;;;;5018021;28;20025;-69
2022/01/06 03:25:11;;;;;;;2.78;0.50;;;21.00;58.80;;;;;;5042457;28;20040;-69
2022/01/06 03:27:37;;;;;;;0.50;0.50;;;21.00;58.80;;;;;;5042067;28;20053;-69
2022/01/06 03:30:04;;;;;;;1.20;0.60;;;21.00;58.80;;;;;;5020824;28;20022;-69
2022/01/06 03:32:29;;;;;;;0.60;0.60;;;21.00;58.80;;;;;;5043441;28;20037;-69
2022/01/06 03:34:55;;;;;;;0.50;0.50;;;21.00;58.80;;;;;;5017983;28;20033;-69
2022/01/06 03:37:21;;;;;;;0.60;0.60;;;21.00;59.20;;;;;;5020575;28;20109;-69
2022/01/06 03:39:46;;;;;;;1.90;0.95;;;21.00;58.90;;;;;;5034426;28;20238;-69
2022/01/06 03:42:12;;;;;;;0.95;0.80;;;21.00;58.90;;;;;;5033970;28;20025;-69
2022/01/06 03:44:38;;;;;;;1.20;0.60;;;21.00;58.90;;;;;;5034324;28;20434;-69
2022/01/06 03:47:04;;;;;;;0.60;0.60;;;21.00;58.90;;;;;;5041192;28;20422;-69
2022/01/06 03:49:29;;;;;;;0.57;0.55;;;21.00;58.90;;;;;;5026691;28;20037;-69
2022/01/06 03:51:55;;;;;;;0.60;0.60;;;20.90;58.80;;;;;;5048029;28;20024;-69
2022/01/06 03:54:20;;;;;;;0.60;0.60;;;21.00;58.80;;;;;;5037235;28;20021;-69
2022/01/06 03:56:48;;;;;;;0.90;0.70;;;21.00;58.90;;;;;;5033647;28;20037;-69
2022/01/06 03:59:15;;;;;;;0.60;0.60;;;20.90;58.80;;;;;;5017828;28;20018;-69
2022/01/06 04:01:41;;;;;;;0.50;0.40;;;21.00;58.90;;;;;;5034573;28;20022;-69
2022/01/06 04:04:07;;;;;;;0.70;0.60;;;20.90;58.80;;;;;;5040801;28;20036;-69
2022/01/06 04:06:32;;;;;;;0.65;0.50;;;20.90;58.90;;;;;;5042436;28;20029;-69
2022/01/06 04:08:58;;;;;;;0.57;0.50;;;20.90;58.90;;;;;;5049107;28;20025;-69
2022/01/06 04:11:23;;;;;;;1.52;0.50;;;20.90;58.90;;;;;;5037475;28;20044;-69
2022/01/06 04:13:49;;;;;;;0.75;0.40;;;20.90;58.90;;;;;;5048344;28;20029;-69
2022/01/06 04:16:16;;;;;;;0.93;0.60;;;20.90;58.90;;;;;;5043205;28;20025;-69
2022/01/06 04:18:42;;;;;;;0.80;0.65;;;20.90;58.90;;;;;;5041425;28;20014;-69
2022/01/06 04:21:09;;;;;;;0.90;0.50;;;20.90;58.90;;;;;;5049023;28;20154;-69
2022/01/06 04:23:34;;;;;;;0.50;0.50;;;20.90;58.90;;;;;;5036456;28;20080;-69
2022/01/06 04:26:00;;;;;;;0.40;0.40;;;20.90;58.90;;;;;;5036390;28;20550;-69
2022/01/06 04:28:25;;;;;;;0.60;0.50;;;20.90;58.90;;;;;;5054696;28;20029;-69
2022/01/06 04:30:51;;;;;;;0.63;0.50;;;20.90;59.00;;;;;;5054751;28;20384;-69
2022/01/06 04:33:17;;;;;;;0.50;0.50;;;20.90;58.90;;;;;;5047139;28;20028;-69
2022/01/06 04:35:42;;;;;;;0.52;0.50;;;20.90;59.90;;;;;;5050818;28;20026;-69
2022/01/06 04:38:08;;;;;;;1.77;0.80;;;20.90;58.90;;;;;;5033127;28;20495;-68
2022/01/06 04:40:34;;;;;;;0.47;0.45;;;20.90;58.90;;;;;;5032196;28;20036;-69
2022/01/06 04:42:59;;;;;;;0.90;0.60;;;20.90;58.90;;;;;;5050886;28;20080;-69
2022/01/06 04:45:25;;;;;;;0.80;0.52;;;20.90;58.90;;;;;;5052006;28;20028;-69
2022/01/06 04:47:50;;;;;;;0.95;0.52;;;20.90;59.00;;;;;;5052100;28;20088;-69
2022/01/06 04:50:16;;;;;;;0.50;0.50;;;20.90;59.00;;;;;;5051340;28;20095;-69
2022/01/06 04:52:42;;;;;;;4.22;0.60;;;20.90;59.50;;;;;;5052792;28;20365;-69
2022/01/06 04:55:08;;;;;;;0.77;0.47;;;20.90;59.00;;;;;;5049798;28;20029;-69
2022/01/06 04:57:33;;;;;;;1.88;0.70;;;20.90;59.00;;;;;;5031309;28;20480;-69
2022/01/06 04:59:59;;;;;;;0.50;0.50;;;20.90;59.00;;;;;;5031638;28;20036;-69
2022/01/06 05:02:25;;;;;;;0.65;0.50;;;20.90;59.00;;;;;;5033029;28;20014;-69
2022/01/06 05:04:50;;;;;;;0.50;0.50;;;20.90;59.00;;;;;;5033365;28;20484;-69
2022/01/06 05:07:16;;;;;;;0.55;0.40;;;20.90;59.00;;;;;;5031077;28;20021;-69
2022/01/06 05:09:42;;;;;;;0.93;0.73;;;20.90;59.00;;;;;;5031659;28;20029;-69
2022/01/06 05:12:07;;;;;;;0.68;0.60;;;20.90;59.00;;;;;;5033342;28;20101;-69
2022/01/06 05:14:33;;;;;;;1.00;0.57;;;20.90;59.00;;;;;;5031954;28;20385;-69
2022/01/06 05:16:59;;;;;;;0.77;0.50;;;20.90;59.00;;;;;;5046948;28;20021;-69
2022/01/06 05:19:25;;;;;;;2.88;0.60;;;20.90;59.00;;;;;;5051846;28;20032;-70
2022/01/06 05:21:52;;;;;;;0.60;0.60;;;20.90;59.00;;;;;;5053096;28;20029;-69
2022/01/06 05:24:23;;;;;;;1.38;0.65;;;20.90;59.00;;;;;;5052822;28;20036;-70
2022/01/06 05:26:48;;;;;;;0.60;0.50;;;20.90;59.10;;;;;;5052474;28;20044;-69
2022/01/06 05:29:14;;;;;;;1.10;0.50;;;20.90;59.10;;;;;;5051874;28;20399;-69
2022/01/06 05:31:40;;;;;;;0.65;0.52;;;20.90;59.10;;;;;;5052833;28;20029;-69
2022/01/06 05:34:06;;;;;;;0.60;0.50;;;20.90;59.00;;;;;;5052814;28;20083;-69
2022/01/06 05:36:32;;;;;;;0.60;0.50;;;20.90;59.00;;;;;;5034611;28;20055;-69
2022/01/06 05:38:58;;;;;;;1.60;0.60;;;20.90;59.10;;;;;;5035158;28;20090;-69
2022/01/06 05:41:24;;;;;;;1.02;0.77;;;20.90;59.10;;;;;;5051340;28;20482;-69
2022/01/06 05:43:49;;;;;;;1.30;0.43;;;20.90;59.10;;;;;;5052738;28;20021;-69
2022/01/06 05:46:16;;;;;;;0.55;0.30;;;20.90;59.10;;;;;;5051493;28;20124;-69
2022/01/06 05:48:42;;;;;;;1.52;0.43;;;20.90;59.10;;;;;;5052326;28;20032;-69
2022/01/06 05:51:07;;;;;;;0.50;0.50;;;20.90;60.10;;;;;;5052155;28;20025;-69
2022/01/06 05:53:33;;;;;;;0.88;0.73;;;20.90;59.10;;;;;;5051266;28;20029;-69
2022/01/06 05:55:59;;;;;;;0.45;0.38;;;20.90;59.10;;;;;;5043008;28;20033;-69
2022/01/06 05:58:24;;;;;;;0.75;0.47;;;20.90;59.10;;;;;;5032377;28;20024;-69
2022/01/06 06:00:51;;;;;;;0.82;0.43;;;20.90;59.10;;;;;;5031137;28;20068;-69
2022/01/06 06:03:16;;;;;;;0.77;0.50;;;20.90;59.10;;;;;;5031183;28;20053;-69
2022/01/06 06:05:42;;;;;;;0.47;0.40;;;20.90;59.20;;;;;;5030902;28;20500;-69
2022/01/06 06:08:11;;;;;;;2.47;0.50;;;20.90;59.20;;;;;;5032504;28;20056;-69
2022/01/06 06:10:37;;;;;;;1.60;0.60;;;20.90;59.20;;;;;;5030837;28;20022;-69
2022/01/06 06:13:03;;;;;;;0.65;0.50;;;20.90;59.10;;;;;;5031138;28;20026;-69
2022/01/06 06:15:34;;;;;;;1.20;0.70;;;20.90;59.20;;;;;;5033491;28;20021;-69
2022/01/06 06:18:05;;;;;;;0.43;0.43;;;20.90;59.10;;;;;;5052280;28;20021;-69
2022/01/06 06:20:31;;;;;;;0.32;0.32;;;20.90;59.10;;;;;;5033972;28;20113;-69
2022/01/06 06:22:57;;;;;;;0.57;0.43;;;20.90;59.10;;;;;;5051141;28;20064;-69
2022/01/06 06:25:22;;;;;;;0.40;0.40;;;20.90;59.20;;;;;;5034163;28;20032;-69
2022/01/06 06:27:48;;;;;;;0.47;0.47;;;20.90;59.20;;;;;;5034328;28;20111;-69
2022/01/06 06:30:14;;;;;;;0.73;0.40;;;20.80;59.20;;;;;;5034425;28;20524;-69
2022/01/06 06:32:39;;;;;;;0.50;0.50;;;20.90;59.20;;;;;;5050676;28;20013;-69
2022/01/06 06:35:05;;;;;;;0.60;0.50;;;20.90;59.10;;;;;;5047060;28;20123;-69
2022/01/06 06:37:31;;;;;;;0.40;0.40;;;20.90;59.20;;;;;;5039895;28;20029;-69
2022/01/06 06:39:57;;;;;;;0.60;0.50;;;20.80;59.20;;;;;;5043571;28;20022;-69
2022/01/06 06:42:24;;;;;;;0.30;0.30;;;20.90;59.20;;;;;;5043541;28;20032;-69
2022/01/06 06:44:50;;;;;;;0.50;0.50;;;20.90;59.20;;;;;;5042391;28;20021;-69
2022/01/06 06:47:15;;;;;;;0.55;0.55;;;20.90;59.20;;;;;;5041055;28;20018;-68
2022/01/06 06:49:41;;;;;;;0.80;0.60;;;20.90;59.20;;;;;;5042016;28;20025;-69
2022/01/06 06:52:07;;;;;;;1.25;0.50;;;20.90;59.20;;;;;;5041896;28;20013;-69
2022/01/06 06:54:32;;;;;;;0.50;0.40;;;20.90;59.10;;;;;;5043253;28;20100;-69
2022/01/06 06:56:58;;;;;;;1.17;0.32;;;20.90;58.80;;;;;;5038630;28;20022;-69
2022/01/06 06:59:24;;;;;;;0.63;0.40;;;20.80;58.70;;;;;;5030530;28;20440;-69
2022/01/06 07:01:49;;;;;;;2.80;0.52;;;20.80;58.70;;;;;;5051647;28;20044;-69
2022/01/06 07:04:15;;;;;;;0.40;0.40;;;20.70;58.50;;;;;;5041545;28;20502;-69
2022/01/06 07:06:41;;;;;;;1.85;0.40;;;20.70;58.50;;;;;;5045612;28;20037;-69
2022/01/06 07:09:06;;;;;;;0.47;0.40;;;20.70;58.60;;;;;;5048971;28;20112;-69
2022/01/06 07:11:32;;;;;;;0.88;0.40;;;20.70;58.60;;;;;;5038599;28;20069;-69
2022/01/06 07:13:58;;;;;;;0.60;0.60;;;20.70;58.60;;;;;;5051364;28;20096;-69
2022/01/06 07:16:23;;;;;;;0.70;0.40;;;20.70;58.50;;;;;;5043729;28;20047;-69
2022/01/06 07:18:49;;;;;;;0.85;0.50;;;20.60;58.40;;;;;;5043051;28;20033;-69
2022/01/06 07:21:15;;;;;;;0.55;0.30;;;20.60;58.40;;;;;;5031765;28;20033;-69
2022/01/06 07:23:41;;;;;;;0.30;0.30;;;20.60;58.40;;;;;;5038072;28;20429;-69
2022/01/06 07:26:07;;;;;;;0.40;0.32;;;20.60;58.40;;;;;;5032631;28;20049;-69
2022/01/06 07:28:32;;;;;;;0.85;0.50;;;20.60;58.40;;;;;;5025544;28;20170;-69
2022/01/06 07:30:58;;;;;;;0.40;0.40;;;20.60;58.30;;;;;;5025492;28;20036;-69
2022/01/06 07:33:24;;;;;;;1.95;0.63;;;20.60;58.30;;;;;;5049913;28;20024;-69
2022/01/06 07:35:49;;;;;;;0.55;0.30;;;20.50;58.20;;;;;;5036738;28;20032;-68
2022/01/06 07:38:15;;;;;;;0.63;0.30;;;20.60;58.30;;;;;;5048155;28;20104;-68
2022/01/06 07:40:41;;;;;;;0.30;0.30;;;20.50;58.20;;;;;;5034937;28;20594;-68
2022/01/06 07:43:07;;;;;;;0.95;0.30;;;20.50;58.20;;;;;;5034670;28;20028;-68
2022/01/06 07:45:32;;;;;;;5.40;1.00;;;20.50;58.20;;;;;;5032663;28;20076;-68
2022/01/06 07:48:01;;;;;;;5.43;1.70;;;20.50;58.20;;;;;;5033238;28;20084;-68
2022/01/06 07:50:33;;;;;;;5.32;1.30;;;20.50;58.20;;;;;;5033088;28;20480;-68
2022/01/06 07:52:58;;;;;;;5.93;1.40;;;20.50;58.30;;;;;;5017790;28;20045;-68
2022/01/06 07:55:24;;;;;;;6.45;1.88;;;20.50;58.20;;;;;;5034593;28;20049;-68
2022/01/06 07:57:50;;;;;;;3.67;1.60;;;20.50;58.20;;;;;;5033983;28;20548;-68
2022/01/06 08:00:16;;;;;;;3.72;1.48;;;20.50;58.20;;;;;;5045310;28;20067;-68
2022/01/06 08:02:42;;;;;;;5.10;1.70;;;20.50;58.10;;;;;;5044007;28;20025;-68
2022/01/06 08:05:13;;;;;;;3.75;1.52;;;20.50;58.10;;;;;;5034546;28;20022;-68
2022/01/06 08:07:39;;;;;;;4.57;1.50;;;20.50;58.10;;;;;;5048956;28;20028;-68
2022/01/06 08:10:05;;;;;;;6.40;1.70;;;20.50;58.00;;;;;;5036705;28;20031;-68
2022/01/06 08:12:30;;;;;;;6.28;1.83;;;20.50;58.00;;;;;;5036692;28;20021;-68
2022/01/06 08:14:56;;;;;;;4.32;1.27;;;20.50;58.00;;;;;;5050110;28;20068;-68
2022/01/06 08:17:22;;;;;;;5.07;1.52;;;20.50;58.00;;;;;;5034107;28;20025;-68
2022/01/06 08:19:47;;;;;;;5.28;1.65;;;20.50;58.00;;;;;;5032899;28;20492;-68
2022/01/06 08:22:13;;;;;;;4.20;2.00;;;20.50;57.90;;;;;;5033172;28;20057;-68
2022/01/06 08:24:39;;;;;;;4.88;1.67;;;20.50;57.90;;;;;;5033024;28;20511;-68
2022/01/06 08:27:08;;;;;;;5.10;1.50;;;20.50;57.90;;;;;;5034058;28;20351;-68
2022/01/06 08:29:37;;;;;;;6.05;1.38;;;20.40;57.80;;;;;;5032965;28;20029;-68
2022/01/06 08:32:03;;;;;;;4.38;1.40;;;20.50;57.90;;;;;;5038255;28;20029;-68
2022/01/06 08:34:29;;;;;;;3.65;1.23;;;20.40;57.70;;;;;;5053910;28;20438;-68
2022/01/06 08:36:54;;;;;;;1.83;1.10;;;20.40;57.70;;;;;;5052796;28;20021;-68
2022/01/06 08:39:21;;;;;;;4.28;1.20;;;20.40;57.70;;;;;;5052710;28;20025;-68
2022/01/06 08:41:47;;;;;;;4.47;1.60;;;20.40;57.70;;;;;;5053617;28;20025;-68
2022/01/06 08:44:13;;;;;;;3.40;1.40;;;20.40;57.70;;;;;;5036175;28;20379;-68
2022/01/06 08:46:38;;;;;;;5.45;1.48;;;20.40;57.60;;;;;;5053470;28;20024;-68
2022/01/06 08:49:06;;;;;;;2.25;1.10;;;20.40;57.60;;;;;;5052438;28;20016;-68
2022/01/06 08:51:32;;;;;;;2.53;1.40;;;20.40;57.60;;;;;;5052603;28;20025;-68
2022/01/06 08:53:57;;;;;;;2.65;1.10;;;20.40;57.60;;;;;;5053288;28;20387;-68
2022/01/06 08:56:23;;;;;;;3.20;1.48;;;20.40;57.60;;;;;;5023240;28;20038;-68
2022/01/06 08:58:49;;;;;;;2.78;0.95;;;20.40;58.60;;;;;;5015776;28;20021;-68
2022/01/06 09:01:15;;;;;;;2.17;1.27;;;20.40;57.50;;;;;;5032318;28;20060;-68
2022/01/06 09:03:40;;;;;;;3.78;1.40;;;20.40;57.50;;;;;;5032296;28;20056;-68
2022/01/06 09:06:06;;;;;;;2.53;1.30;;;20.40;57.50;;;;;;5036228;28;20092;-68
2022/01/06 09:08:32;;;;;;;2.70;1.20;;;20.40;57.60;;;;;;5053408;28;20021;-68
2022/01/06 09:10:57;;;;;;;3.78;1.00;;;20.40;57.50;;;;;;5035231;28;20289;-68
2022/01/06 09:13:23;;;;;;;4.72;1.52;;;20.30;57.40;;;;;;5052084;28;20021;-68
2022/01/06 09:15:48;;;;;;;2.53;1.25;;;20.40;57.50;;;;;;5051696;28;20083;-68
2022/01/06 09:18:14;;;;;;;4.80;1.05;;;20.30;57.30;;;;;;5052057;28;20025;-68
2022/01/06 09:20:40;;;;;;;3.42;1.00;;;20.30;57.40;;;;;;5051850;28;20484;-68
2022/01/06 09:23:06;;;;;;;3.22;1.05;;;20.30;57.30;;;;;;5051880;28;20025;-68
2022/01/06 09:25:31;;;;;;;2.25;1.13;;;20.30;57.40;;;;;;5052803;28;20392;-68
2022/01/06 09:27:57;;;;;;;2.15;1.00;;;20.30;57.30;;;;;;5053083;28;20021;-68
2022/01/06 09:30:25;;;;;;;2.50;0.70;;;20.30;57.30;;;;;;5052400;28;20568;-68
2022/01/06 09:32:51;;;;;;;1.73;0.88;;;20.30;57.30;;;;;;5052799;28;20103;-68
2022/01/06 09:35:16;;;;;;;1.90;1.00;;;20.30;57.20;;;;;;5053017;28;20100;-68
2022/01/06 09:37:42;;;;;;;1.35;0.80;;;20.30;57.30;;;;;;5052858;28;20525;-68
2022/01/06 09:40:09;;;;;;;2.38;0.90;;;20.30;57.30;;;;;;5052628;28;20448;-68
2022/01/06 09:42:35;;;;;;;1.60;0.88;;;20.30;57.20;;;;;;5051690;28;20071;-68
2022/01/06 09:45:01;;;;;;;1.63;0.70;;;20.30;57.20;;;;;;5051023;28;20777;-68
2022/01/06 09:47:28;;;;;;;1.73;1.10;;;20.30;57.20;;;;;;5051330;28;20013;-68
2022/01/06 09:49:53;;;;;;;2.67;0.93;;;20.30;57.20;;;;;;5052481;28;20027;-68
2022/01/06 09:52:19;;;;;;;1.52;0.85;;;20.30;57.20;;;;;;5052622;28;20021;-68
2022/01/06 09:54:45;;;;;;;1.63;0.60;;;20.30;57.10;;;;;;5051155;28;20071;-68
2022/01/06 09:57:12;;;;;;;2.40;0.85;;;20.30;57.20;;;;;;5015546;28;20052;-68
2022/01/06 09:59:41;;;;;;;2.25;1.00;;;20.30;57.10;;;;;;5032147;28;20491;-68
2022/01/06 10:02:13;;;;;;;2.53;1.10;;;20.30;57.00;;;;;;5032667;28;20124;-68
2022/01/06 10:04:38;;;;;;;1.80;0.80;;;20.30;57.10;;;;;;5031305;28;20030;-68
2022/01/06 10:07:08;;;;;;;1.85;0.88;;;20.30;57.00;;;;;;5042929;28;20319;-68
2022/01/06 10:09:34;;;;;;;3.53;1.00;;;20.30;57.00;;;;;;5051318;28;20063;-68
2022/01/06 10:12:00;;;;;;;1.50;0.88;;;20.30;57.00;;;;;;5050264;28;20025;-68
2022/01/06 10:14:39;;;;;;;1.85;0.73;;;20.30;57.00;;;;;;5050963;28;20395;-68
2022/01/06 10:17:05;;;;;;;1.58;0.60;;;20.30;56.90;;;;;;5035199;28;20096;-68
2022/01/06 10:19:31;;;;;;;1.05;0.90;;;20.30;56.90;;;;;;5051179;28;20436;-68
2022/01/06 10:21:59;;;;;;;1.73;0.70;;;20.30;56.90;;;;;;5052056;28;20128;-68
2022/01/06 10:24:26;;;;;;;1.48;0.60;;;20.30;56.90;;;;;;5052018;28;20411;-68
2022/01/06 10:26:52;;;;;;;1.52;0.70;;;20.30;56.90;;;;;;5050440;28;20120;-68
2022/01/06 10:29:18;;;;;;;1.90;1.10;;;20.30;56.80;;;;;;5052125;28;20156;-68
2022/01/06 10:31:43;;;;;;;0.85;0.50;;;20.30;56.80;;;;;;5050915;28;20083;-68
2022/01/06 10:34:09;;;;;;;2.15;0.63;;;20.30;56.80;;;;;;5050878;28;20104;-68
2022/01/06 10:36:36;;;;;;;0.82;0.60;;;20.30;56.80;;;;;;5051893;28;20395;-68
2022/01/06 10:39:02;;;;;;;1.00;0.70;;;20.30;56.80;;;;;;5050840;28;20027;-68
2022/01/06 10:41:28;;;;;;;1.73;0.57;;;20.30;56.80;;;;;;5051594;28;20112;-68
2022/01/06 10:43:56;;;;;;;0.75;0.70;;;20.30;56.70;;;;;;5050808;28;20105;-68
2022/01/06 10:46:39;;;;;;;0.98;0.57;;;20.30;56.70;;;;;;5050808;28;20029;-68
2022/01/06 10:49:06;;;;;;;;;;;20.30;56.60;;;;;;5051092;28;20082;-68
2022/01/06 10:51:32;;;;;;;1.35;0.65;;;20.20;56.40;;;;;;5050648;28;19916;-68
2022/01/06 10:53:58;;;;;;;1.00;0.50;;;20.20;56.80;;;;;;5051774;28;20025;-68
2022/01/06 10:56:24;;;;;;;0.57;0.55;;;20.20;56.80;;;;;;5038519;28;20032;-68
2022/01/06 10:58:50;;;;;;;2.35;0.65;;;20.20;56.70;;;;;;5031913;28;20044;-68
2022/01/06 11:01:16;;;;;;;0.60;0.60;;;20.20;56.70;;;;;;5030701;28;20395;-68
2022/01/06 11:03:42;;;;;;;0.50;0.45;;;20.20;56.60;;;;;;5030643;28;20030;-68
2022/01/06 11:06:08;;;;;;;0.65;0.50;;;20.20;56.60;;;;;;5034463;28;20090;-68
2022/01/06 11:08:39;;;;;;;0.95;0.43;;;20.20;56.50;;;;;;5050686;28;20029;-68
2022/01/06 11:13:33;;;;;;;1.02;0.50;;;20.20;56.50;;;;;;5034473;28;20094;-68
2022/01/06 11:15:59;;;;;;;0.95;0.63;;;20.20;56.50;;;;;;5050509;28;20414;-68
2022/01/06 11:18:25;;;;;;;1.10;0.82;;;20.20;56.40;;;;;;5033878;28;20021;-68
2022/01/06 11:20:51;;;;;;;0.60;0.43;;;20.30;56.40;;;;;;5033931;28;20082;-68
2022/01/06 11:23:23;;;;;;;0.45;0.32;;;20.20;56.40;;;;;;5050617;28;20036;-68
2022/01/06 11:26:11;;;;;;;0.63;0.30;;;20.30;56.40;;;;;;5053556;28;20049;-68
2022/01/06 11:28:36;;;;;;;0.85;0.50;;;20.30;56.20;;;;;;5054205;28;20510;-68
2022/01/06 11:31:23;;;;;;;0.50;0.35;;;20.20;56.40;;;;;;5053808;28;20025;-68
2022/01/06 11:33:50;;;;;;;0.68;0.40;;;20.30;56.10;;;;;;5053977;28;20025;-68
2022/01/06 11:36:24;;;;;;;1.00;0.60;;;20.20;56.30;;;;;;5037326;28;20032;-68
2022/01/06 11:38:50;;;;;;;0.40;0.40;;;20.30;56.20;;;;;;5055094;28;20025;-68
2022/01/06 11:41:16;;;;;;;1.33;0.63;;;20.30;56.30;;;;;;5036991;28;20029;-68
2022/01/06 11:43:43;;;;;;;0.40;0.40;;;20.20;56.20;;;;;;5053670;28;20033;-68
2022/01/06 11:46:09;;;;;;;0.50;0.30;;;20.20;56.20;;;;;;5053600;28;20048;-68
2022/01/06 11:49:07;;;;;;;1.00;0.50;;;20.20;56.10;;;;;;5053879;28;20478;-68
2022/01/06 11:51:35;;;;;;;0.93;0.50;;;20.30;55.80;;;;;;5036170;28;20079;-68
2022/01/06 11:54:17;;;;;;;1.05;0.40;;;20.20;56.20;;;;;;5035646;28;20068;-68
2022/01/06 11:56:47;;;;;;;0.93;0.50;;;20.30;56.00;;;;;;5036823;28;20017;-68
2022/01/06 11:59:13;;;;;;;0.40;0.40;;;20.30;56.20;;;;;;5035925;28;20033;-68
2022/01/06 12:01:49;;;;;;;0.80;0.50;;;20.20;56.10;;;;;;5036055;28;20151;-68
2022/01/06 12:04:19;;;;;;;0.82;0.40;;;20.20;55.90;;;;;;5019575;28;20028;-68
2022/01/06 12:06:45;;;;;;;0.63;0.40;;;20.20;56.10;;;;;;5032155;28;20022;-68
2022/01/06 12:09:21;;;;;;;0.73;0.50;;;20.20;56.00;;;;;;5015625;28;20041;-68
2022/01/06 12:11:47;;;;;;;0.40;0.40;;;20.20;55.90;;;;;;5016007;28;20053;-68
2022/01/06 12:14:23;;;;;;;1.30;0.60;;;20.20;56.00;;;;;;5015887;28;20072;-68
2022/01/06 12:16:49;;;;;;;1.02;0.60;;;20.20;55.80;;;;;;5015888;28;20036;-68
2022/01/06 12:19:23;;;;;;;0.73;0.40;;;20.30;56.00;;;;;;5032115;28;20108;-68
2022/01/06 12:21:48;;;;;;;0.98;0.63;;;20.20;56.00;;;;;;5015952;28;20041;-68
2022/01/06 12:24:14;;;;;;;0.52;0.32;;;20.20;55.90;;;;;;5015416;28;20026;-68
2022/01/06 12:26:40;;;;;;;1.35;0.50;;;20.20;55.90;;;;;;5018711;28;20084;-68
2022/01/06 12:29:14;;;;;;;0.63;0.40;;;20.20;55.90;;;;;;5049568;28;20309;-68
2022/01/06 12:31:41;;;;;;;0.45;0.35;;;20.20;55.90;;;;;;5032940;28;20033;-68
2022/01/06 12:34:07;;;;;;;1.45;0.57;;;20.20;55.90;;;;;;5033068;28;20124;-68
2022/01/06 12:36:34;;;;;;;0.45;0.40;;;20.20;55.80;;;;;;5049445;28;20101;-68
2022/01/06 12:39:27;;;;;;;0.57;0.38;;;20.20;55.90;;;;;;5032466;28;20515;-68
2022/01/06 12:41:53;;;;;;;0.70;0.30;;;20.20;55.60;;;;;;5034385;28;20037;-68
2022/01/06 12:44:27;;;;;;;0.40;0.30;;;20.20;55.80;;;;;;5033839;28;20406;-68
2022/01/06 12:46:52;;;;;;;0.70;0.50;;;20.20;55.70;;;;;;5049056;28;20492;-68
2022/01/06 12:49:21;;;;;;;0.47;0.47;;;20.20;55.80;;;;;;5049131;28;20029;-68
2022/01/06 12:51:46;;;;;;;0.75;0.35;;;20.20;55.80;;;;;;5048776;28;20506;-68
2022/01/06 12:54:19;;;;;;;0.80;0.40;;;20.20;55.80;;;;;;5049087;28;20025;-68
2022/01/06 12:56:50;;;;;;;0.68;0.40;;;20.20;55.60;;;;;;5020684;28;20028;-68
2022/01/06 12:59:17;;;;;;;2.08;0.40;;;20.20;55.60;;;;;;5032463;28;20181;-68